METAR Data
IDs: Format: Raw Decoded Include TAF

Data at: 2321 UTC 25 Oct 2021

CYXS 252300Z AUTO 16015G23KT 9SM FEW050 BKN100 12/02 A2916 RMK SLP890 DENSITY ALT 3400FT